createdAt,value
2018-12-30T00:00:30.494Z,61.09
2018-12-30T00:03:32.944Z,61.18
2018-12-30T00:06:35.369Z,61.23
2018-12-30T00:09:37.623Z,61.37
2018-12-30T00:12:39.492Z,61.48
2018-12-30T00:15:41.472Z,61.57
2018-12-30T00:18:43.427Z,61.79
2018-12-30T00:21:46.083Z,61.93
2018-12-30T00:24:48.057Z,61.90
2018-12-30T00:27:50.027Z,61.67
2018-12-30T00:30:52.503Z,61.55
2018-12-30T00:33:54.493Z,61.42
2018-12-30T00:36:56.397Z,61.39
2018-12-30T00:39:58.303Z,61.52
2018-12-30T00:43:00.200Z,61.60
2018-12-30T00:46:02.122Z,61.53
2018-12-30T00:49:04.051Z,61.43
2018-12-30T00:52:06.022Z,61.36
2018-12-30T00:55:07.988Z,61.15
2018-12-30T00:58:10.041Z,61.08
2018-12-30T01:01:11.952Z,61.00
2018-12-30T01:04:13.984Z,60.94
2018-12-30T01:07:15.974Z,60.88
2018-12-30T01:10:17.870Z,60.77
2018-12-30T01:13:23.126Z,60.70
2018-12-30T01:16:25.158Z,60.61
2018-12-30T01:19:27.207Z,60.47
2018-12-30T01:22:29.098Z,60.37
2018-12-30T01:25:31.146Z,60.26
2018-12-30T01:28:33.143Z,60.16
2018-12-30T01:31:35.191Z,60.21
2018-12-30T01:34:37.133Z,60.32
2018-12-30T01:37:39.149Z,60.35
2018-12-30T01:40:41.110Z,60.33
2018-12-30T01:43:43.101Z,60.30
2018-12-30T01:46:48.102Z,60.22
2018-12-30T01:49:50.046Z,60.04
2018-12-30T01:52:51.938Z,60.18
2018-12-30T01:55:54.204Z,60.19
2018-12-30T01:58:56.309Z,60.27
2018-12-30T02:01:58.320Z,60.24
2018-12-30T02:05:00.533Z,60.28
2018-12-30T02:08:02.419Z,60.27
2018-12-30T02:11:04.373Z,60.25
2018-12-30T02:14:06.350Z,60.27
2018-12-30T02:17:08.311Z,60.19
2018-12-30T02:20:10.244Z,60.22
2018-12-30T02:23:12.172Z,60.39
2018-12-30T02:26:14.182Z,60.62
2018-12-30T02:29:16.100Z,60.75
2018-12-30T02:32:18.662Z,61.02
2018-12-30T02:35:20.624Z,61.26
2018-12-30T02:38:22.569Z,61.39
2018-12-30T02:41:24.415Z,61.37
2018-12-30T02:44:26.413Z,61.25
2018-12-30T02:47:28.542Z,61.25
2018-12-30T02:50:30.495Z,61.30
2018-12-30T02:53:32.718Z,61.25
2018-12-30T02:56:34.652Z,61.28
2018-12-30T02:59:36.826Z,61.18
2018-12-30T03:02:38.675Z,61.16
2018-12-30T03:05:40.617Z,61.21
2018-12-30T03:08:42.470Z,61.20
2018-12-30T03:11:44.453Z,61.30
2018-12-30T03:14:46.332Z,61.37
2018-12-30T03:17:48.338Z,61.49
2018-12-30T03:20:50.266Z,61.56
2018-12-30T03:23:52.786Z,61.43
2018-12-30T03:26:54.655Z,61.39
2018-12-30T03:29:56.674Z,61.28
2018-12-30T03:32:58.642Z,61.22
2018-12-30T03:36:00.603Z,61.17
2018-12-30T03:39:04.775Z,61.37
2018-12-30T03:42:06.661Z,61.38
2018-12-30T03:45:08.552Z,61.54
2018-12-30T03:48:10.411Z,61.49
2018-12-30T03:51:12.304Z,61.68
2018-12-30T03:54:14.243Z,61.73
2018-12-30T03:57:16.271Z,61.76
2018-12-30T04:00:18.313Z,61.84
2018-12-30T04:03:20.277Z,61.96
2018-12-30T04:06:22.115Z,62.11
2018-12-30T04:09:24.066Z,62.28
2018-12-30T04:12:25.950Z,62.27
2018-12-30T04:15:27.838Z,62.30
2018-12-30T04:18:29.686Z,62.31
2018-12-30T04:21:31.561Z,62.42
2018-12-30T04:24:33.442Z,62.67
2018-12-30T04:27:35.367Z,62.53
2018-12-30T04:30:38.609Z,62.51
2018-12-30T04:33:40.511Z,62.34
2018-12-30T04:36:43.696Z,62.37
2018-12-30T04:39:45.725Z,62.38
2018-12-30T04:42:47.610Z,62.37
2018-12-30T04:45:49.572Z,62.29
2018-12-30T04:48:51.492Z,62.18
2018-12-30T04:51:53.456Z,62.13
2018-12-30T04:54:56.079Z,61.99
2018-12-30T04:57:58.013Z,62.01
2018-12-30T05:01:00.203Z,61.83
2018-12-30T05:04:05.679Z,61.64
2018-12-30T05:07:07.590Z,61.54
2018-12-30T05:10:09.449Z,61.48
2018-12-30T05:13:11.298Z,61.35
2018-12-30T05:16:13.181Z,61.29
2018-12-30T05:19:15.048Z,61.22
2018-12-30T05:22:17.047Z,61.22
2018-12-30T05:25:20.120Z,61.15
2018-12-30T05:28:22.054Z,61.12
2018-12-30T05:31:23.958Z,60.96
2018-12-30T05:34:26.069Z,60.95
2018-12-30T05:37:27.938Z,60.89
2018-12-30T05:40:29.886Z,60.89
2018-12-30T05:43:31.906Z,60.81
2018-12-30T05:46:33.835Z,60.85
2018-12-30T05:49:35.793Z,60.79
2018-12-30T05:52:41.831Z,60.68
2018-12-30T05:55:41.644Z,60.64
2018-12-30T05:58:44.629Z,60.55
2018-12-30T06:01:46.634Z,60.48
2018-12-30T06:04:48.582Z,60.48
2018-12-30T06:07:50.519Z,60.45
2018-12-30T06:10:52.454Z,60.31
2018-12-30T06:13:54.368Z,60.43
2018-12-30T06:16:56.255Z,60.35
2018-12-30T06:19:58.159Z,60.23
2018-12-30T06:23:00.025Z,60.16
2018-12-30T06:26:01.930Z,60.12
2018-12-30T06:29:03.810Z,59.85
2018-12-30T06:32:05.885Z,59.81
2018-12-30T06:35:07.883Z,59.74
2018-12-30T06:38:09.788Z,59.67
2018-12-30T06:41:11.779Z,59.73
2018-12-30T06:44:13.666Z,59.59
2018-12-30T06:47:15.587Z,59.53
2018-12-30T06:50:17.497Z,59.56
2018-12-30T06:53:19.515Z,59.58
2018-12-30T06:56:21.449Z,59.51
2018-12-30T06:59:23.410Z,59.35
2018-12-30T07:02:25.378Z,59.43
2018-12-30T07:05:27.305Z,59.54
2018-12-30T07:08:29.283Z,59.58
2018-12-30T07:11:31.247Z,59.66
2018-12-30T07:14:33.195Z,59.63
2018-12-30T07:17:35.059Z,59.60
2018-12-30T07:20:37.048Z,59.52
2018-12-30T07:23:38.973Z,59.43
2018-12-30T07:26:40.903Z,59.46
2018-12-30T07:29:42.799Z,59.44
2018-12-30T07:32:44.827Z,59.54
2018-12-30T07:35:46.817Z,59.55
2018-12-30T07:38:48.706Z,59.62
2018-12-30T07:41:50.608Z,59.75
2018-12-30T07:44:52.539Z,59.67
2018-12-30T07:47:54.526Z,59.73
2018-12-30T07:50:56.502Z,59.76
2018-12-30T07:53:58.345Z,59.48
2018-12-30T07:57:00.304Z,59.55
2018-12-30T08:00:02.276Z,59.54
2018-12-30T08:03:04.298Z,59.68
2018-12-30T08:06:07.051Z,59.69
2018-12-30T08:09:08.967Z,59.79
2018-12-30T08:12:10.821Z,59.86
2018-12-30T08:15:12.708Z,59.92
2018-12-30T08:18:14.597Z,59.98
2018-12-30T08:21:16.538Z,59.83
2018-12-30T08:24:18.474Z,59.64
2018-12-30T08:27:20.421Z,59.68
2018-12-30T08:30:22.467Z,59.58
2018-12-30T08:33:24.378Z,59.39
2018-12-30T08:36:26.348Z,59.32
2018-12-30T08:39:28.289Z,59.48
2018-12-30T08:42:30.221Z,59.57
2018-12-30T08:45:32.139Z,59.58
2018-12-30T08:48:34.103Z,59.46
2018-12-30T08:51:35.963Z,59.83
2018-12-30T08:54:37.945Z,60.15
2018-12-30T08:57:39.819Z,60.04
2018-12-30T09:00:41.738Z,60.20
2018-12-30T09:03:43.824Z,60.38
2018-12-30T09:06:45.759Z,60.43
2018-12-30T09:09:47.701Z,60.60
2018-12-30T09:12:49.587Z,60.58
2018-12-30T09:15:51.504Z,60.68
2018-12-30T09:18:53.424Z,60.73
2018-12-30T09:21:55.425Z,60.71
2018-12-30T09:24:57.340Z,60.70
2018-12-30T09:27:59.302Z,60.85
2018-12-30T09:31:01.191Z,60.83
2018-12-30T09:34:03.173Z,60.95
2018-12-30T09:37:05.088Z,60.86
2018-12-30T09:40:06.986Z,60.77
2018-12-30T09:43:08.863Z,60.76
2018-12-30T09:46:10.813Z,60.63
2018-12-30T09:49:12.688Z,60.58
2018-12-30T09:52:14.685Z,60.57
2018-12-30T09:55:16.570Z,60.57
2018-12-30T09:58:18.522Z,60.41
2018-12-30T10:01:20.356Z,60.45
2018-12-30T10:04:22.522Z,60.62
2018-12-30T10:07:24.397Z,60.84
2018-12-30T10:10:26.452Z,61.15
2018-12-30T10:13:28.424Z,61.37
2018-12-30T10:16:30.327Z,61.45
2018-12-30T10:19:32.359Z,61.65
2018-12-30T10:22:34.243Z,61.90
2018-12-30T10:25:36.227Z,62.05
2018-12-30T10:28:38.055Z,62.20
2018-12-30T10:31:40.026Z,62.25
2018-12-30T10:34:41.938Z,62.46
2018-12-30T10:37:43.898Z,62.90
2018-12-30T10:40:45.785Z,62.95
2018-12-30T10:43:47.684Z,63.12
2018-12-30T10:46:49.534Z,63.02
2018-12-30T10:49:51.487Z,63.17
2018-12-30T10:52:53.442Z,62.96
2018-12-30T10:55:55.427Z,62.78
2018-12-30T10:58:57.339Z,62.88
2018-12-30T11:01:59.258Z,63.01
2018-12-30T11:05:01.278Z,63.03
2018-12-30T11:08:04.460Z,63.09
2018-12-30T11:11:06.414Z,62.91
2018-12-30T11:14:08.411Z,62.79
2018-12-30T11:17:10.310Z,62.81
2018-12-30T11:20:12.236Z,62.99
2018-12-30T11:23:14.179Z,63.17
2018-12-30T11:26:16.202Z,63.22
2018-12-30T11:29:18.154Z,63.43
2018-12-30T11:32:20.986Z,63.47
2018-12-30T11:35:22.910Z,63.37
2018-12-30T11:38:24.840Z,63.53
2018-12-30T11:41:28.076Z,63.54
2018-12-30T11:44:29.994Z,63.66
2018-12-30T11:47:31.988Z,63.74
2018-12-30T11:50:33.863Z,63.73
2018-12-30T11:53:35.790Z,63.57
2018-12-30T11:56:37.792Z,63.36
2018-12-30T11:59:39.827Z,63.04
2018-12-30T12:02:41.797Z,63.05
2018-12-30T12:05:44.007Z,63.16
2018-12-30T12:08:46.051Z,63.19
2018-12-30T12:11:47.955Z,63.12
2018-12-30T12:14:49.937Z,62.70
2018-12-30T12:17:51.855Z,62.82
2018-12-30T12:20:53.869Z,62.78
2018-12-30T12:23:55.830Z,62.83
2018-12-30T12:26:57.727Z,62.98
2018-12-30T12:29:59.801Z,63.05
2018-12-30T12:33:01.763Z,63.03
2018-12-30T12:36:03.823Z,63.10
2018-12-30T12:39:05.686Z,63.00
2018-12-30T12:42:08.051Z,62.83
2018-12-30T12:45:09.989Z,62.69
2018-12-30T12:48:12.063Z,62.78
2018-12-30T12:51:14.123Z,62.81
2018-12-30T12:54:16.124Z,62.67
2018-12-30T12:57:18.106Z,62.52
2018-12-30T13:00:20.089Z,62.58
2018-12-30T13:03:22.027Z,62.46
2018-12-30T13:06:23.985Z,62.39
2018-12-30T13:09:25.939Z,62.18
2018-12-30T13:12:27.819Z,61.94
2018-12-30T13:15:29.801Z,62.13
2018-12-30T13:18:31.757Z,62.19
2018-12-30T13:21:33.663Z,62.06
2018-12-30T13:24:39.838Z,62.08
2018-12-30T13:27:39.611Z,61.96
2018-12-30T13:30:41.595Z,61.96
2018-12-30T13:33:43.466Z,61.84
2018-12-30T13:36:45.551Z,62.01
2018-12-30T13:39:47.471Z,62.01
2018-12-30T13:42:49.541Z,62.09
2018-12-30T13:45:51.460Z,62.19
2018-12-30T13:48:53.407Z,62.06
2018-12-30T13:51:55.428Z,61.82
2018-12-30T13:54:57.412Z,62.09
2018-12-30T13:57:59.326Z,61.84
2018-12-30T14:01:01.442Z,62.00
2018-12-30T14:04:03.428Z,62.03
2018-12-30T14:07:06.088Z,61.87
2018-12-30T14:10:08.743Z,61.77
2018-12-30T14:13:10.704Z,61.63
2018-12-30T14:16:12.616Z,61.47
2018-12-30T14:19:14.572Z,61.46
2018-12-30T14:22:16.516Z,61.56
2018-12-30T14:25:18.463Z,61.38
2018-12-30T14:28:20.410Z,61.24
2018-12-30T14:31:22.456Z,61.06
2018-12-30T14:34:24.472Z,61.03
2018-12-30T14:37:26.467Z,61.01
2018-12-30T14:40:30.012Z,61.19
2018-12-30T14:43:32.876Z,61.64
2018-12-30T14:46:35.035Z,61.89
2018-12-30T14:49:37.268Z,62.04
2018-12-30T14:52:39.139Z,62.17
2018-12-30T14:55:41.198Z,62.27
2018-12-30T14:58:43.102Z,62.51
2018-12-30T15:01:45.067Z,62.45
2018-12-30T15:04:47.026Z,62.29
2018-12-30T15:07:49.075Z,62.16
2018-12-30T15:10:51.062Z,62.25
2018-12-30T15:13:53.097Z,62.39
2018-12-30T15:16:55.072Z,62.32
2018-12-30T15:19:57.045Z,62.17
2018-12-30T15:22:58.992Z,61.94
2018-12-30T15:26:01.281Z,61.86
2018-12-30T15:29:03.232Z,61.67
2018-12-30T15:32:05.235Z,61.58
2018-12-30T15:35:07.157Z,61.52
2018-12-30T15:38:09.248Z,61.58
2018-12-30T15:41:11.108Z,61.65
2018-12-30T15:44:13.194Z,61.66
2018-12-30T15:47:15.199Z,61.75
2018-12-30T15:50:17.237Z,61.68
2018-12-30T15:53:19.228Z,61.48
2018-12-30T15:56:21.253Z,61.75
2018-12-30T15:59:24.187Z,61.81
2018-12-30T16:02:26.314Z,61.74
2018-12-30T16:05:28.424Z,61.90
2018-12-30T16:08:30.503Z,62.00
2018-12-30T16:11:32.428Z,61.91
2018-12-30T16:14:34.350Z,61.88
2018-12-30T16:17:36.468Z,61.79
2018-12-30T16:20:38.440Z,61.64
2018-12-30T16:23:40.562Z,61.61
2018-12-30T16:26:42.494Z,61.50
2018-12-30T16:29:44.604Z,61.44
2018-12-30T16:32:46.552Z,61.39
2018-12-30T16:35:48.537Z,61.41
2018-12-30T16:38:50.496Z,61.19
2018-12-30T16:41:52.755Z,61.20
2018-12-30T16:44:54.998Z,61.08
2018-12-30T16:47:56.922Z,61.20
2018-12-30T16:50:58.913Z,61.20
2018-12-30T16:54:00.844Z,61.18
2018-12-30T16:57:03.332Z,61.09
2018-12-30T17:00:08.421Z,60.99
2018-12-30T17:03:11.569Z,61.03
2018-12-30T17:06:14.495Z,60.95
2018-12-30T17:09:16.716Z,60.89
2018-12-30T17:12:18.675Z,60.84
2018-12-30T17:15:20.799Z,60.98
2018-12-30T17:18:24.110Z,61.10
2018-12-30T17:21:25.997Z,60.98
2018-12-30T17:24:29.785Z,60.97
2018-12-30T17:27:31.686Z,60.89
2018-12-30T17:30:33.701Z,60.91
2018-12-30T17:33:35.706Z,60.84
2018-12-30T17:36:37.711Z,60.81
2018-12-30T17:39:39.689Z,60.79
2018-12-30T17:42:41.699Z,60.76
2018-12-30T17:45:43.627Z,60.73
2018-12-30T17:48:48.417Z,60.84
2018-12-30T17:51:50.265Z,60.64
2018-12-30T17:54:52.196Z,60.64
2018-12-30T17:57:54.102Z,60.52
2018-12-30T18:00:56.020Z,60.57
2018-12-30T18:03:57.975Z,60.77
2018-12-30T18:06:59.950Z,60.88
2018-12-30T18:10:02.108Z,60.82
2018-12-30T18:13:04.071Z,60.67
2018-12-30T18:16:05.996Z,60.68
2018-12-30T18:19:12.660Z,60.65
2018-12-30T18:22:15.758Z,60.68
2018-12-30T18:25:17.794Z,60.76
2018-12-30T18:28:19.740Z,60.76
2018-12-30T18:31:23.206Z,60.93
2018-12-30T18:34:28.426Z,60.84
2018-12-30T18:37:30.388Z,60.79
2018-12-30T18:40:32.342Z,60.74
2018-12-30T18:43:34.306Z,60.59
2018-12-30T18:46:36.662Z,60.40
2018-12-30T18:49:40.636Z,60.36
2018-12-30T18:52:42.533Z,60.39
2018-12-30T18:55:44.480Z,60.53
2018-12-30T18:58:46.362Z,60.59
2018-12-30T19:01:50.118Z,60.48
2018-12-30T19:04:55.547Z,60.58
2018-12-30T19:07:59.744Z,60.67
2018-12-30T19:11:01.888Z,60.55
2018-12-30T19:14:03.876Z,60.58
2018-12-30T19:17:07.122Z,60.55
2018-12-30T19:20:09.439Z,60.62
2018-12-30T19:23:11.627Z,60.79
2018-12-30T19:26:14.629Z,60.74
2018-12-30T19:29:17.083Z,60.73
2018-12-30T19:32:19.031Z,60.81
2018-12-30T19:35:21.293Z,60.75
2018-12-30T19:38:23.315Z,60.63
2018-12-30T19:41:25.275Z,60.50
2018-12-30T19:44:30.823Z,60.42
2018-12-30T19:47:34.259Z,60.46
2018-12-30T19:50:38.381Z,60.36
2018-12-30T19:53:40.836Z,60.44
2018-12-30T19:56:42.834Z,60.85
2018-12-30T19:59:44.744Z,61.23
2018-12-30T20:02:46.756Z,61.30
2018-12-30T20:05:50.987Z,61.44
2018-12-30T20:08:52.936Z,61.61
2018-12-30T20:11:58.142Z,61.91
2018-12-30T20:15:00.160Z,62.01
2018-12-30T20:18:02.265Z,62.01
2018-12-30T20:21:04.583Z,61.64
2018-12-30T20:24:07.665Z,61.70
2018-12-30T20:27:10.773Z,61.48
2018-12-30T20:30:12.751Z,61.46
2018-12-30T20:33:14.710Z,61.46
2018-12-30T20:36:17.825Z,61.52
2018-12-30T20:39:20.270Z,61.51
2018-12-30T20:42:22.663Z,61.44
2018-12-30T20:45:25.795Z,61.53
2018-12-30T20:48:28.190Z,61.67
2018-12-30T20:51:30.489Z,61.95
2018-12-30T20:54:32.385Z,62.13
2018-12-30T20:57:34.571Z,61.94
2018-12-30T21:00:36.755Z,61.95
2018-12-30T21:03:40.165Z,61.99
2018-12-30T21:06:44.392Z,62.09
2018-12-30T21:09:46.491Z,61.99
2018-12-30T21:12:50.480Z,61.97
2018-12-30T21:15:54.910Z,61.93
2018-12-30T21:18:56.831Z,62.12
2018-12-30T21:21:59.601Z,62.11
2018-12-30T21:25:01.529Z,62.38
2018-12-30T21:28:03.546Z,62.68
2018-12-30T21:31:07.812Z,62.71
2018-12-30T21:34:09.753Z,62.42
2018-12-30T21:37:13.654Z,62.27
2018-12-30T21:40:16.994Z,62.06
2018-12-30T21:43:18.971Z,61.90
2018-12-30T21:46:21.148Z,61.77
2018-12-30T21:49:25.305Z,61.80
2018-12-30T21:52:27.172Z,61.61
2018-12-30T21:55:30.256Z,61.76
2018-12-30T21:58:32.176Z,61.77
2018-12-30T22:01:34.137Z,61.69
2018-12-30T22:04:37.216Z,61.86
2018-12-30T22:07:39.234Z,61.83
2018-12-30T22:10:41.616Z,61.84
2018-12-30T22:13:43.704Z,61.87
2018-12-30T22:16:45.666Z,62.02
2018-12-30T22:19:47.670Z,61.68
2018-12-30T22:22:50.201Z,61.41
2018-12-30T22:25:53.659Z,61.16
2018-12-30T22:28:57.317Z,61.12
2018-12-30T22:31:59.630Z,60.92
2018-12-30T22:35:01.545Z,60.98
2018-12-30T22:38:03.502Z,60.85
2018-12-30T22:41:05.461Z,60.78
2018-12-30T22:44:07.360Z,60.76
2018-12-30T22:47:10.210Z,61.02
2018-12-30T22:50:12.164Z,60.95
2018-12-30T22:53:14.082Z,60.84
2018-12-30T22:56:15.985Z,60.90
2018-12-30T22:59:17.885Z,60.76
2018-12-30T23:02:19.794Z,60.78
2018-12-30T23:05:22.591Z,60.60
2018-12-30T23:08:24.549Z,60.53
2018-12-30T23:11:26.485Z,60.52
2018-12-30T23:14:28.623Z,60.35
2018-12-30T23:17:30.563Z,60.30
2018-12-30T23:20:32.483Z,60.36
2018-12-30T23:23:34.462Z,60.24
2018-12-30T23:26:36.347Z,60.13
2018-12-30T23:29:39.502Z,60.21
2018-12-30T23:32:41.409Z,60.19
2018-12-30T23:35:43.320Z,60.19
2018-12-30T23:38:45.185Z,60.16
2018-12-30T23:41:47.112Z,60.21
2018-12-30T23:44:49.034Z,59.97
2018-12-30T23:47:50.903Z,59.93
2018-12-30T23:50:52.912Z,59.64
2018-12-30T23:53:54.837Z,59.72
2018-12-30T23:56:56.730Z,59.47
2018-12-30T23:59:58.603Z,59.35
